createdAt,value
2017-11-08T00:01:49.112Z,5.90
2017-11-08T00:04:18.552Z,5.80
2017-11-08T00:06:46.069Z,5.80
2017-11-08T00:09:13.560Z,5.90
2017-11-08T00:11:41.066Z,5.90
2017-11-08T00:14:08.576Z,6.00
2017-11-08T00:16:37.946Z,6.00
2017-11-08T00:19:05.432Z,5.90
2017-11-08T00:24:34.832Z,5.80
2017-11-08T00:27:02.336Z,5.80
2017-11-08T00:29:29.837Z,5.90
2017-11-08T00:31:57.331Z,5.80
2017-11-08T00:34:25.580Z,5.90
2017-11-08T00:36:53.076Z,5.90
2017-11-08T00:39:20.550Z,5.90
2017-11-08T00:41:48.061Z,5.90
2017-11-08T00:44:15.559Z,5.80
2017-11-08T00:46:43.057Z,5.80
2017-11-08T00:49:10.553Z,5.90
2017-11-08T00:51:38.815Z,5.90
2017-11-08T00:54:07.072Z,5.80
2017-11-08T00:56:34.569Z,5.80
2017-11-08T00:59:02.053Z,5.80
2017-11-08T01:01:29.571Z,5.80
2017-11-08T01:03:57.841Z,5.80
2017-11-08T01:06:26.116Z,5.80
2017-11-08T01:08:53.627Z,5.80
2017-11-08T01:11:21.133Z,5.80
2017-11-08T01:13:49.392Z,5.80
2017-11-08T01:16:16.883Z,5.80
2017-11-08T01:18:44.373Z,5.80
2017-11-08T01:21:11.882Z,5.80
2017-11-08T01:23:40.141Z,5.80
2017-11-08T01:26:07.641Z,5.80
2017-11-08T01:28:35.142Z,5.80
2017-11-08T01:31:02.641Z,5.70
2017-11-08T01:33:30.907Z,5.70
2017-11-08T01:35:58.396Z,5.60
2017-11-08T01:38:25.884Z,5.60
2017-11-08T01:40:53.372Z,5.60
2017-11-08T01:43:20.873Z,5.60
2017-11-08T01:45:48.369Z,5.60
2017-11-08T01:48:15.852Z,5.60
2017-11-08T01:50:43.349Z,5.60
2017-11-08T01:53:10.847Z,5.60
2017-11-08T01:55:38.344Z,5.60
2017-11-08T01:58:05.831Z,5.60
2017-11-08T02:00:33.342Z,5.60
2017-11-08T02:03:01.606Z,5.60
2017-11-08T02:05:29.117Z,5.60
2017-11-08T02:07:56.601Z,5.60
2017-11-08T02:10:24.100Z,5.60
2017-11-08T02:12:52.364Z,5.60
2017-11-08T02:15:19.871Z,5.60
2017-11-08T02:17:52.300Z,5.60
2017-11-08T02:20:20.566Z,5.60
2017-11-08T02:22:48.060Z,5.50
2017-11-08T02:25:15.558Z,5.60
2017-11-08T02:27:43.043Z,5.60
2017-11-08T02:30:10.560Z,5.60
2017-11-08T02:32:38.046Z,5.50
2017-11-08T02:35:05.531Z,5.50
2017-11-08T02:37:36.556Z,5.50
2017-11-08T02:40:04.045Z,5.50
2017-11-08T02:42:31.552Z,5.50
2017-11-08T02:44:59.044Z,5.50
2017-11-08T02:47:26.564Z,5.50
2017-11-08T02:49:54.068Z,5.50
2017-11-08T02:52:22.333Z,5.50
2017-11-08T02:54:52.420Z,5.40
2017-11-08T02:57:19.960Z,5.40
2017-11-08T02:59:50.316Z,5.40
2017-11-08T03:02:23.572Z,5.40
2017-11-08T03:04:51.061Z,5.40
2017-11-08T03:07:18.556Z,5.40
2017-11-08T03:09:46.056Z,5.40
2017-11-08T03:12:13.548Z,5.40
2017-11-08T03:14:41.035Z,5.40
2017-11-08T03:17:08.563Z,5.30
2017-11-08T03:19:36.045Z,5.30
2017-11-08T03:22:04.308Z,5.30
2017-11-08T03:24:32.582Z,5.30
2017-11-08T03:27:00.852Z,5.20
2017-11-08T03:29:28.351Z,5.20
2017-11-08T03:31:55.844Z,5.20
2017-11-08T03:34:23.333Z,5.20
2017-11-08T03:36:51.590Z,5.10
2017-11-08T03:39:19.080Z,5.10
2017-11-08T03:41:47.382Z,5.10
2017-11-08T03:44:14.861Z,5.10
2017-11-08T03:46:42.418Z,5.00
2017-11-08T03:49:09.907Z,5.00
2017-11-08T03:51:37.404Z,5.00
2017-11-08T03:54:04.913Z,5.00
2017-11-08T03:56:32.401Z,5.00
2017-11-08T03:59:00.658Z,5.00
2017-11-08T04:01:28.196Z,5.00
2017-11-08T04:03:55.709Z,5.00
2017-11-08T04:06:23.232Z,5.00
2017-11-08T04:08:50.730Z,5.00
2017-11-08T04:11:18.225Z,4.90
2017-11-08T04:13:45.727Z,4.90
2017-11-08T04:16:14.021Z,4.90
2017-11-08T04:18:41.544Z,4.90
2017-11-08T04:21:09.033Z,4.90
2017-11-08T04:23:36.522Z,4.80
2017-11-08T04:26:04.020Z,4.80
2017-11-08T04:28:31.531Z,4.90
2017-11-08T04:30:59.030Z,4.90
2017-11-08T04:33:26.518Z,4.90
2017-11-08T04:35:54.010Z,4.90
2017-11-08T04:38:21.514Z,4.90
2017-11-08T04:40:49.768Z,4.90
2017-11-08T04:43:17.309Z,4.90
2017-11-08T04:45:44.797Z,4.90
2017-11-08T04:48:12.308Z,4.90
2017-11-08T04:50:39.813Z,4.90
2017-11-08T04:53:07.296Z,4.80
2017-11-08T04:55:35.573Z,4.80
2017-11-08T04:58:04.544Z,4.80
2017-11-08T05:00:32.028Z,4.80
2017-11-08T05:02:59.525Z,4.70
2017-11-08T05:05:27.021Z,4.70
2017-11-08T05:07:54.529Z,4.70
2017-11-08T05:10:22.024Z,4.60
2017-11-08T05:12:49.508Z,4.60
2017-11-08T05:15:17.778Z,4.50
2017-11-08T05:17:46.028Z,4.50
2017-11-08T05:20:13.534Z,4.50
2017-11-08T05:22:41.032Z,4.50
2017-11-08T05:25:08.568Z,4.50
2017-11-08T05:27:36.098Z,4.50
2017-11-08T05:30:03.607Z,4.60
2017-11-08T05:32:31.111Z,4.50
2017-11-08T05:34:59.393Z,4.40
2017-11-08T05:37:26.897Z,4.40
2017-11-08T05:39:54.414Z,4.40
2017-11-08T05:42:21.896Z,4.40
2017-11-08T05:44:49.405Z,4.40
2017-11-08T05:47:17.653Z,4.40
2017-11-08T05:49:45.140Z,4.40
2017-11-08T05:52:13.400Z,4.40
2017-11-08T05:54:40.891Z,4.40
2017-11-08T05:57:08.408Z,4.30
2017-11-08T05:59:35.910Z,4.40
2017-11-08T06:02:03.397Z,4.30
2017-11-08T06:04:30.899Z,4.30
2017-11-08T06:06:58.392Z,4.30
2017-11-08T06:09:25.904Z,4.30
2017-11-08T06:11:53.406Z,4.30
2017-11-08T06:14:20.905Z,4.30
2017-11-08T06:16:48.452Z,4.30
2017-11-08T06:19:15.949Z,4.30
2017-11-08T06:21:43.467Z,4.20
2017-11-08T06:24:10.966Z,4.20
2017-11-08T06:26:38.460Z,4.20
2017-11-08T06:29:05.965Z,4.30
2017-11-08T06:31:33.486Z,4.20
2017-11-08T06:34:00.997Z,4.30
2017-11-08T06:36:28.489Z,4.30
2017-11-08T06:38:55.992Z,4.30
2017-11-08T06:41:23.487Z,4.30
2017-11-08T06:43:51.743Z,4.30
2017-11-08T06:46:19.244Z,4.30
2017-11-08T06:48:46.737Z,4.30
2017-11-08T06:51:14.270Z,4.30
2017-11-08T06:53:42.552Z,4.30
2017-11-08T06:56:10.044Z,4.40
2017-11-08T06:58:37.543Z,4.40
2017-11-08T07:01:05.029Z,4.50
2017-11-08T07:03:32.536Z,4.50
2017-11-08T07:06:00.062Z,4.60
2017-11-08T07:08:27.567Z,4.60
2017-11-08T07:10:55.831Z,4.70
2017-11-08T07:13:24.113Z,5.20
2017-11-08T07:15:52.400Z,5.70
2017-11-08T07:18:19.950Z,5.60
2017-11-08T07:20:48.279Z,5.60
2017-11-08T07:23:15.790Z,5.50
2017-11-08T07:25:43.316Z,5.60
2017-11-08T07:28:10.856Z,6.10
2017-11-08T07:30:38.427Z,6.10
2017-11-08T07:33:05.930Z,6.10
2017-11-08T07:35:33.439Z,6.20
2017-11-08T07:38:00.939Z,6.20
2017-11-08T07:40:29.224Z,6.30
2017-11-08T07:42:56.707Z,6.20
2017-11-08T07:45:24.190Z,6.10
2017-11-08T07:47:51.796Z,6.00
2017-11-08T07:50:19.370Z,6.00
2017-11-08T07:52:46.996Z,6.00
2017-11-08T07:55:20.076Z,6.00
2017-11-08T07:57:47.598Z,6.00
2017-11-08T08:00:18.015Z,6.00
2017-11-08T08:02:45.573Z,6.10
2017-11-08T08:05:13.083Z,6.20
2017-11-08T08:07:41.579Z,6.40
2017-11-08T08:10:09.972Z,6.60
2017-11-08T08:12:37.478Z,6.60
2017-11-08T08:15:04.990Z,6.60
2017-11-08T08:17:32.501Z,6.50
2017-11-08T08:19:59.996Z,6.60
2017-11-08T08:22:27.524Z,6.60
2017-11-08T08:24:58.746Z,6.50
2017-11-08T08:27:26.252Z,6.50
2017-11-08T08:29:54.530Z,6.60
2017-11-08T08:32:22.785Z,6.70
2017-11-08T08:34:50.279Z,6.70
2017-11-08T08:37:17.820Z,7.00
2017-11-08T08:39:46.076Z,7.60
2017-11-08T08:42:13.631Z,7.50
2017-11-08T08:44:41.119Z,7.70
2017-11-08T08:47:08.635Z,8.00
2017-11-08T08:49:36.124Z,8.00
2017-11-08T08:52:04.381Z,8.00
2017-11-08T08:54:31.894Z,8.00
2017-11-08T08:56:59.388Z,8.30
2017-11-08T08:59:27.014Z,8.30
2017-11-08T09:01:56.276Z,8.50
2017-11-08T09:04:24.572Z,9.10
2017-11-08T09:06:52.104Z,9.00
2017-11-08T09:09:19.689Z,9.10
2017-11-08T09:11:47.932Z,8.70
2017-11-08T09:14:15.419Z,8.70
2017-11-08T09:16:43.690Z,8.60
2017-11-08T09:19:11.189Z,8.60
2017-11-08T09:21:38.719Z,8.60
2017-11-08T09:24:06.213Z,8.70
2017-11-08T09:26:33.715Z,8.80
2017-11-08T09:29:03.650Z,8.90
2017-11-08T09:31:36.995Z,8.90
2017-11-08T09:34:04.468Z,8.90
2017-11-08T09:36:34.784Z,8.90
2017-11-08T09:39:02.839Z,9.00
2017-11-08T09:41:32.160Z,9.10
2017-11-08T09:43:59.652Z,9.20
2017-11-08T09:46:27.345Z,9.60
2017-11-08T09:48:54.835Z,10.00
2017-11-08T09:51:22.327Z,10.40
2017-11-08T09:53:50.588Z,10.80
2017-11-08T09:56:19.020Z,10.80
2017-11-08T09:58:46.523Z,10.70
2017-11-08T10:01:15.792Z,10.70
2017-11-08T10:03:43.283Z,10.70
2017-11-08T10:06:10.785Z,10.80
2017-11-08T10:08:41.210Z,10.80
2017-11-08T10:11:12.687Z,10.80
2017-11-08T10:13:40.204Z,10.70
2017-11-08T10:16:07.708Z,10.40
2017-11-08T10:18:36.008Z,10.30
2017-11-08T10:21:04.277Z,10.30
2017-11-08T10:23:32.560Z,10.30
2017-11-08T10:26:00.156Z,10.30
2017-11-08T10:28:27.688Z,10.30
2017-11-08T10:30:55.957Z,11.20
2017-11-08T10:33:24.212Z,12.00
2017-11-08T10:35:51.699Z,12.00
2017-11-08T10:38:19.957Z,12.50
2017-11-08T10:40:47.612Z,12.40
2017-11-08T10:43:15.071Z,12.50
2017-11-08T10:45:43.350Z,12.00
2017-11-08T10:48:10.840Z,12.00
2017-11-08T10:50:38.398Z,11.70
2017-11-08T10:53:05.885Z,11.60
2017-11-08T10:55:33.471Z,11.40
2017-11-08T10:58:00.992Z,11.50
2017-11-08T11:03:30.549Z,11.60
2017-11-08T11:05:58.810Z,11.50
2017-11-08T11:08:26.297Z,11.50
2017-11-08T11:10:54.552Z,11.60
2017-11-08T11:13:23.659Z,11.70
2017-11-08T11:15:52.892Z,11.70
2017-11-08T11:18:20.385Z,11.70
2017-11-08T11:20:47.908Z,11.90
2017-11-08T11:23:15.433Z,12.00
2017-11-08T11:25:46.693Z,11.90
2017-11-08T11:28:14.949Z,11.80
2017-11-08T11:30:44.396Z,11.70
2017-11-08T11:33:11.893Z,11.50
2017-11-08T11:35:39.414Z,11.50
2017-11-08T11:38:11.761Z,11.90
2017-11-08T11:40:40.019Z,11.90
2017-11-08T11:43:07.509Z,11.90
2017-11-08T11:45:35.053Z,11.90
2017-11-08T11:48:03.312Z,11.90
2017-11-08T11:50:31.600Z,11.90
2017-11-08T11:52:59.860Z,11.80
2017-11-08T11:55:27.365Z,11.80
2017-11-08T11:57:54.874Z,11.70
2017-11-08T12:00:22.377Z,11.70
2017-11-08T12:02:49.873Z,11.60
2017-11-08T12:05:17.377Z,11.40
2017-11-08T12:07:44.896Z,11.40
2017-11-08T12:10:12.414Z,11.30
2017-11-08T12:12:39.905Z,11.20
2017-11-08T12:15:07.443Z,11.20
2017-11-08T12:17:34.939Z,11.10
2017-11-08T12:20:02.540Z,11.00
2017-11-08T12:22:30.046Z,10.80
2017-11-08T12:24:57.616Z,10.70
2017-11-08T12:27:31.770Z,10.70
2017-11-08T12:29:59.260Z,10.60
2017-11-08T12:32:26.781Z,10.60
2017-11-08T12:34:59.068Z,10.40
2017-11-08T12:37:27.456Z,10.40
2017-11-08T12:39:56.758Z,10.30
2017-11-08T12:42:24.300Z,10.20
2017-11-08T12:47:54.209Z,10.30
2017-11-08T12:50:21.708Z,10.20
2017-11-08T12:52:49.209Z,10.20
2017-11-08T12:55:16.735Z,10.20
2017-11-08T12:57:46.005Z,10.20
2017-11-08T13:00:14.369Z,10.20
2017-11-08T13:02:42.665Z,10.10
2017-11-08T13:05:10.169Z,10.00
2017-11-08T13:07:37.813Z,10.00
2017-11-08T13:10:05.345Z,9.90
2017-11-08T13:12:32.845Z,9.70
2017-11-08T13:15:00.341Z,9.60
2017-11-08T13:17:28.619Z,9.50
2017-11-08T13:19:56.892Z,9.50
2017-11-08T13:22:24.484Z,9.50
2017-11-08T13:24:52.110Z,9.50
2017-11-08T13:27:19.631Z,9.40
2017-11-08T13:29:47.188Z,9.30
2017-11-08T13:32:15.605Z,9.20
2017-11-08T13:34:43.876Z,9.10
2017-11-08T13:37:11.538Z,9.10
2017-11-08T13:39:39.021Z,9.10
2017-11-08T13:42:09.105Z,8.90
2017-11-08T13:44:36.604Z,8.90
2017-11-08T13:47:04.881Z,8.80
2017-11-08T13:49:33.158Z,8.80
2017-11-08T13:52:00.657Z,8.80
2017-11-08T13:54:28.163Z,8.80
2017-11-08T13:56:56.448Z,8.70
2017-11-08T13:59:24.725Z,8.70
2017-11-08T14:01:52.992Z,8.70
2017-11-08T14:04:21.278Z,8.60
2017-11-08T14:06:48.781Z,8.60
2017-11-08T14:09:16.272Z,8.60
2017-11-08T14:11:43.763Z,8.60
2017-11-08T14:14:11.268Z,8.60
2017-11-08T14:16:38.861Z,8.60
2017-11-08T14:19:07.133Z,8.50
2017-11-08T14:21:35.393Z,8.40
2017-11-08T14:24:02.897Z,8.40
2017-11-08T14:26:30.402Z,8.40
2017-11-08T14:28:57.887Z,8.50
2017-11-08T14:31:26.172Z,8.40
2017-11-08T14:33:54.428Z,8.30
2017-11-08T14:36:22.717Z,8.20
2017-11-08T14:38:50.997Z,8.20
2017-11-08T14:41:19.266Z,8.20
2017-11-08T14:43:47.533Z,8.10
2017-11-08T14:46:15.836Z,8.10
2017-11-08T14:48:43.476Z,8.10
2017-11-08T14:51:11.777Z,8.00
2017-11-08T14:53:41.063Z,8.00
2017-11-08T14:56:09.333Z,7.90
2017-11-08T14:58:37.605Z,7.90
2017-11-08T15:01:05.890Z,7.90
2017-11-08T15:03:34.145Z,7.80
2017-11-08T15:06:01.724Z,7.80
2017-11-08T15:08:29.983Z,7.80
2017-11-08T15:10:57.492Z,7.80
2017-11-08T15:13:24.980Z,7.70
2017-11-08T15:15:52.484Z,7.80
2017-11-08T15:18:19.983Z,7.70
2017-11-08T15:20:47.480Z,7.70
2017-11-08T15:23:15.752Z,7.60
2017-11-08T15:25:43.245Z,7.60
2017-11-08T15:28:10.733Z,7.60
2017-11-08T15:30:38.237Z,7.50
2017-11-08T15:33:08.620Z,7.50
2017-11-08T15:35:36.197Z,7.50
2017-11-08T15:38:03.684Z,7.40
2017-11-08T15:40:31.953Z,7.40
2017-11-08T15:43:00.442Z,7.40
2017-11-08T15:45:27.950Z,7.40
2017-11-08T15:47:55.466Z,7.40
2017-11-08T15:50:23.016Z,7.40
2017-11-08T15:52:50.559Z,7.40
2017-11-08T15:55:18.095Z,7.30
2017-11-08T15:57:45.621Z,7.30
2017-11-08T16:00:13.148Z,7.30
2017-11-08T16:02:44.281Z,7.30
2017-11-08T16:05:11.861Z,7.30
2017-11-08T16:07:40.136Z,7.30
2017-11-08T16:10:07.632Z,7.20
2017-11-08T16:12:35.145Z,7.20
2017-11-08T16:15:04.484Z,7.30
2017-11-08T16:17:32.878Z,7.20
2017-11-08T16:20:00.509Z,7.20
2017-11-08T16:22:28.040Z,7.20
2017-11-08T16:24:55.711Z,7.10
2017-11-08T16:27:23.216Z,7.10
2017-11-08T16:29:50.732Z,7.20
2017-11-08T16:32:20.000Z,7.10
2017-11-08T16:34:47.957Z,7.10
2017-11-08T16:37:15.552Z,7.00
2017-11-08T16:39:43.939Z,7.10
2017-11-08T16:42:12.626Z,7.10
2017-11-08T16:44:40.898Z,7.10
2017-11-08T16:47:09.177Z,7.00
2017-11-08T16:49:37.664Z,7.00
2017-11-08T16:52:05.424Z,7.00
2017-11-08T16:54:33.726Z,7.00
2017-11-08T16:57:01.261Z,7.00
2017-11-08T16:59:29.523Z,6.90
2017-11-08T17:01:57.112Z,6.90
2017-11-08T17:04:24.670Z,6.90
2017-11-08T17:06:52.229Z,6.90
2017-11-08T17:09:19.796Z,6.90
2017-11-08T17:11:47.342Z,6.90
2017-11-08T17:14:14.833Z,6.90
2017-11-08T17:16:42.381Z,6.80
2017-11-08T17:19:10.034Z,6.90
2017-11-08T17:21:37.539Z,6.90
2017-11-08T17:24:05.039Z,6.80
2017-11-08T17:26:32.659Z,6.80
2017-11-08T17:29:00.973Z,6.80
2017-11-08T17:31:28.535Z,6.80
2017-11-08T17:33:56.032Z,6.70
2017-11-08T17:36:23.558Z,6.60
2017-11-08T17:38:51.054Z,6.60
2017-11-08T17:41:18.680Z,6.60
2017-11-08T17:43:46.181Z,6.60
2017-11-08T17:46:13.807Z,6.60
2017-11-08T17:48:41.305Z,6.60
2017-11-08T17:51:08.813Z,6.60
2017-11-08T17:53:36.370Z,6.50
2017-11-08T17:56:03.952Z,6.50
2017-11-08T17:58:31.481Z,6.50
2017-11-08T18:00:59.048Z,6.60
2017-11-08T18:03:26.615Z,6.60
2017-11-08T18:05:54.103Z,6.50
2017-11-08T18:08:21.740Z,6.60
2017-11-08T18:10:49.234Z,6.50
2017-11-08T18:13:16.810Z,6.50
2017-11-08T18:15:45.099Z,6.60
2017-11-08T18:18:12.766Z,6.50
2017-11-08T18:20:41.035Z,6.60
2017-11-08T18:23:09.298Z,6.50
2017-11-08T18:25:37.613Z,6.50
2017-11-08T18:28:05.110Z,6.50
2017-11-08T18:30:32.628Z,6.50
2017-11-08T18:33:00.122Z,6.50
2017-11-08T18:35:27.631Z,6.50
2017-11-08T18:37:55.631Z,6.50
2017-11-08T18:40:23.133Z,6.50
2017-11-08T18:42:50.709Z,6.50
2017-11-08T18:45:19.000Z,6.50
2017-11-08T18:47:46.658Z,6.50
2017-11-08T18:50:14.340Z,6.50
2017-11-08T18:52:41.836Z,6.50
2017-11-08T18:55:10.896Z,6.40
2017-11-08T18:57:38.413Z,6.50
2017-11-08T19:00:07.245Z,6.50
2017-11-08T19:02:34.762Z,6.50
2017-11-08T19:05:03.049Z,6.50
2017-11-08T19:07:31.320Z,6.50
2017-11-08T19:09:58.812Z,6.50
2017-11-08T19:12:26.310Z,6.50
2017-11-08T19:14:53.809Z,6.50
2017-11-08T19:17:21.327Z,6.50
2017-11-08T19:19:48.955Z,6.60
2017-11-08T19:22:16.598Z,6.50
2017-11-08T19:24:44.167Z,6.50
2017-11-08T19:27:11.661Z,6.50
2017-11-08T19:29:39.179Z,6.50
2017-11-08T19:32:06.688Z,6.50
2017-11-08T19:34:34.232Z,6.50
2017-11-08T19:37:01.749Z,6.60
2017-11-08T19:39:29.262Z,6.50
2017-11-08T19:41:56.774Z,6.50
2017-11-08T19:44:24.283Z,6.50
2017-11-08T19:46:51.777Z,6.50
2017-11-08T19:49:19.375Z,6.40
2017-11-08T19:51:46.879Z,6.50
2017-11-08T19:54:15.133Z,6.50
2017-11-08T19:56:42.671Z,6.50
2017-11-08T19:59:10.259Z,6.50
2017-11-08T20:01:38.530Z,6.40
2017-11-08T20:04:06.125Z,6.40
2017-11-08T20:06:33.669Z,6.40
2017-11-08T20:09:01.929Z,6.50
2017-11-08T20:11:30.234Z,6.50
2017-11-08T20:13:57.757Z,6.50
2017-11-08T20:16:25.275Z,6.50
2017-11-08T20:18:52.785Z,6.60
2017-11-08T20:21:20.345Z,6.60
2017-11-08T20:23:48.773Z,6.50
2017-11-08T20:26:16.300Z,6.60
2017-11-08T20:28:43.799Z,6.50
2017-11-08T20:31:11.382Z,6.60
2017-11-08T20:33:39.002Z,6.60
2017-11-08T20:36:06.562Z,6.60
2017-11-08T20:38:34.088Z,6.60
2017-11-08T20:41:02.440Z,6.60
2017-11-08T20:43:29.877Z,6.60
2017-11-08T20:45:57.391Z,6.60
2017-11-08T20:48:24.876Z,6.60
2017-11-08T20:50:52.463Z,6.50
2017-11-08T20:53:19.988Z,6.50
2017-11-08T20:55:47.563Z,6.50
2017-11-08T20:58:15.071Z,6.60
2017-11-08T21:00:43.352Z,6.50
2017-11-08T21:03:11.632Z,6.60
2017-11-08T21:05:39.907Z,6.50
2017-11-08T21:08:08.312Z,6.50
2017-11-08T21:10:35.852Z,6.50
2017-11-08T21:13:03.339Z,6.60
2017-11-08T21:15:30.886Z,6.60
2017-11-08T21:17:58.475Z,6.60
2017-11-08T21:20:25.956Z,6.60
2017-11-08T21:22:53.437Z,6.60
2017-11-08T21:25:20.951Z,6.60
2017-11-08T21:27:48.473Z,6.60
2017-11-08T21:30:15.970Z,6.60
2017-11-08T21:32:43.505Z,6.60
2017-11-08T21:35:11.032Z,6.60
2017-11-08T21:37:39.377Z,6.60
2017-11-08T21:40:06.877Z,6.60
2017-11-08T21:42:34.393Z,6.60
2017-11-08T21:45:01.912Z,6.60
2017-11-08T21:47:29.486Z,6.60
2017-11-08T21:49:57.366Z,6.70
2017-11-08T21:52:24.912Z,6.60
2017-11-08T21:54:52.387Z,6.60
2017-11-08T21:57:19.893Z,6.60
2017-11-08T21:59:47.389Z,6.60
2017-11-08T22:02:14.977Z,6.50
2017-11-08T22:04:42.477Z,6.60
2017-11-08T22:07:10.016Z,6.60
2017-11-08T22:09:38.284Z,6.60
2017-11-08T22:12:05.809Z,6.60
2017-11-08T22:14:33.297Z,6.60
2017-11-08T22:17:01.755Z,6.70
2017-11-08T22:19:29.254Z,6.70
2017-11-08T22:21:56.790Z,6.90
2017-11-08T22:24:25.719Z,6.90
2017-11-08T22:26:53.214Z,6.90
2017-11-08T22:29:22.287Z,6.80
2017-11-08T22:31:49.840Z,6.80
2017-11-08T22:34:17.341Z,6.80
2017-11-08T22:36:44.855Z,6.70
2017-11-08T22:39:12.349Z,6.70
2017-11-08T22:41:39.855Z,6.70
2017-11-08T22:44:07.438Z,6.70
2017-11-08T22:46:35.032Z,6.60
2017-11-08T22:49:02.541Z,6.70
2017-11-08T22:51:30.056Z,6.60
2017-11-08T22:53:57.611Z,6.60
2017-11-08T22:56:25.108Z,6.60
2017-11-08T22:58:52.650Z,6.60
2017-11-08T23:01:20.937Z,6.60
2017-11-08T23:03:48.493Z,6.60
2017-11-08T23:06:16.001Z,6.60
2017-11-08T23:08:43.520Z,6.60
2017-11-08T23:11:11.052Z,6.60
2017-11-08T23:13:39.334Z,6.60
2017-11-08T23:16:07.592Z,6.60
2017-11-08T23:18:35.083Z,6.60
2017-11-08T23:21:02.580Z,6.60
2017-11-08T23:23:30.070Z,6.60
2017-11-08T23:25:58.359Z,6.60
2017-11-08T23:28:26.630Z,6.60
2017-11-08T23:30:54.898Z,6.60
2017-11-08T23:33:22.391Z,6.60
2017-11-08T23:35:49.917Z,6.60
2017-11-08T23:38:18.177Z,6.50
2017-11-08T23:40:45.680Z,6.50
2017-11-08T23:43:13.192Z,6.50
2017-11-08T23:45:40.698Z,6.50
2017-11-08T23:48:08.193Z,6.50
2017-11-08T23:50:35.696Z,6.50
2017-11-08T23:53:03.961Z,6.50
2017-11-08T23:55:32.229Z,6.50
2017-11-08T23:57:59.721Z,6.50
